sensor_id;sensor_type;location;lat;lon;timestamp;pressure;altitude;pressure_sealevel;temperature;humidity
60061;BME280;45933;51.336;12.612;2023-02-03T00:02:16;100564.06;;;4.57;67.23
60061;BME280;45933;51.336;12.612;2023-02-03T00:04:41;100564.03;;;4.55;67.42
60061;BME280;45933;51.336;12.612;2023-02-03T00:07:09;100552.75;;;4.53;67.43
60061;BME280;45933;51.336;12.612;2023-02-03T00:09:35;100544.09;;;4.50;66.88
60061;BME280;45933;51.336;12.612;2023-02-03T00:12:01;100544.78;;;4.44;67.55
60061;BME280;45933;51.336;12.612;2023-02-03T00:14:26;100552.41;;;4.39;67.62
60061;BME280;45933;51.336;12.612;2023-02-03T00:16:51;100547.09;;;4.33;67.93
60061;BME280;45933;51.336;12.612;2023-02-03T00:19:16;100543.41;;;4.25;68.36
60061;BME280;45933;51.336;12.612;2023-02-03T00:21:42;100538.22;;;4.24;68.33
60061;BME280;45933;51.336;12.612;2023-02-03T00:24:07;100526.31;;;4.29;67.93
60061;BME280;45933;51.336;12.612;2023-02-03T00:26:32;100527.03;;;4.23;68.49
60061;BME280;45933;51.336;12.612;2023-02-03T00:28:58;100516.34;;;4.11;68.87
60061;BME280;45933;51.336;12.612;2023-02-03T00:31:24;100503.38;;;4.08;69.05
60061;BME280;45933;51.336;12.612;2023-02-03T00:33:54;100493.72;;;4.01;69.73
60061;BME280;45933;51.336;12.612;2023-02-03T00:36:20;100486.06;;;4.04;69.13
60061;BME280;45933;51.336;12.612;2023-02-03T00:38:46;100478.44;;;4.07;68.91
60061;BME280;45933;51.336;12.612;2023-02-03T00:41:12;100473.13;;;4.02;69.00
60061;BME280;45933;51.336;12.612;2023-02-03T00:43:38;100467.13;;;4.02;69.11
60061;BME280;45933;51.336;12.612;2023-02-03T00:46:03;100461.72;;;3.94;69.67
60061;BME280;45933;51.336;12.612;2023-02-03T00:48:29;100454.22;;;4.02;69.27
60061;BME280;45933;51.336;12.612;2023-02-03T00:50:54;100449.53;;;3.88;70.60
60061;BME280;45933;51.336;12.612;2023-02-03T00:53:19;100440.06;;;3.87;70.17
60061;BME280;45933;51.336;12.612;2023-02-03T00:55:44;100433.19;;;3.88;70.48
60061;BME280;45933;51.336;12.612;2023-02-03T00:58:10;100429.94;;;3.95;70.18
60061;BME280;45933;51.336;12.612;2023-02-03T01:00:35;100432.59;;;3.97;69.84
60061;BME280;45933;51.336;12.612;2023-02-03T01:03:00;100416.75;;;3.84;70.54
60061;BME280;45933;51.336;12.612;2023-02-03T01:05:26;100425.50;;;3.89;70.28
60061;BME280;45933;51.336;12.612;2023-02-03T01:07:51;100415.28;;;3.92;70.39
60061;BME280;45933;51.336;12.612;2023-02-03T01:10:16;100414.25;;;3.86;70.67
60061;BME280;45933;51.336;12.612;2023-02-03T01:12:42;100416.13;;;3.93;70.41
60061;BME280;45933;51.336;12.612;2023-02-03T01:15:07;100417.69;;;3.86;70.75
60061;BME280;45933;51.336;12.612;2023-02-03T01:17:33;100404.94;;;3.91;70.70
60061;BME280;45933;51.336;12.612;2023-02-03T01:19:58;100406.50;;;3.86;71.02
60061;BME280;45933;51.336;12.612;2023-02-03T01:22:24;100398.56;;;3.78;71.46
60061;BME280;45933;51.336;12.612;2023-02-03T01:24:49;100400.53;;;3.88;70.51
60061;BME280;45933;51.336;12.612;2023-02-03T01:27:14;100394.53;;;3.89;70.48
60061;BME280;45933;51.336;12.612;2023-02-03T01:29:39;100383.41;;;3.90;70.91
60061;BME280;45933;51.336;12.612;2023-02-03T01:32:05;100385.88;;;3.86;71.57
60061;BME280;45933;51.336;12.612;2023-02-03T01:34:30;100379.00;;;3.86;71.31
60061;BME280;45933;51.336;12.612;2023-02-03T01:36:56;100377.34;;;3.90;71.66
60061;BME280;45933;51.336;12.612;2023-02-03T01:39:21;100363.00;;;4.00;70.64
60061;BME280;45933;51.336;12.612;2023-02-03T01:41:46;100348.44;;;4.02;70.87
60061;BME280;45933;51.336;12.612;2023-02-03T01:47:02;100338.00;;;3.96;71.84
60061;BME280;45933;51.336;12.612;2023-02-03T01:49:34;100351.19;;;4.08;71.09
60061;BME280;45933;51.336;12.612;2023-02-03T01:52:00;100352.81;;;4.06;71.50
60061;BME280;45933;51.336;12.612;2023-02-03T01:54:29;100340.84;;;4.06;71.53
60061;BME280;45933;51.336;12.612;2023-02-03T01:57:00;100341.75;;;4.10;71.60
60061;BME280;45933;51.336;12.612;2023-02-03T01:59:27;100342.59;;;4.09;71.84
60061;BME280;45933;51.336;12.612;2023-02-03T02:01:55;100334.94;;;4.12;71.85
60061;BME280;45933;51.336;12.612;2023-02-03T02:04:24;100337.59;;;4.15;72.00
60061;BME280;45933;51.336;12.612;2023-02-03T02:06:51;100323.91;;;4.17;72.02
60061;BME280;45933;51.336;12.612;2023-02-03T02:09:16;100311.06;;;4.20;71.97
60061;BME280;45933;51.336;12.612;2023-02-03T02:11:41;100321.97;;;4.09;73.48
60061;BME280;45933;51.336;12.612;2023-02-03T02:14:08;100316.22;;;4.20;72.99
60061;BME280;45933;51.336;12.612;2023-02-03T02:16:52;100316.28;;;4.22;73.41
60061;BME280;45933;51.336;12.612;2023-02-03T02:20:06;100314.19;;;4.43;71.96
60061;BME280;45933;51.336;12.612;2023-02-03T02:23:08;100301.19;;;4.40;73.37
60061;BME280;45933;51.336;12.612;2023-02-03T02:31:42;100277.34;;;4.51;72.90
60061;BME280;45933;51.336;12.612;2023-02-03T02:34:33;100279.09;;;4.53;73.23
60061;BME280;45933;51.336;12.612;2023-02-03T02:37:18;100273.22;;;4.59;73.71
60061;BME280;45933;51.336;12.612;2023-02-03T02:39:54;100275.13;;;4.67;72.76
60061;BME280;45933;51.336;12.612;2023-02-03T02:43:19;100257.13;;;4.72;73.28
60061;BME280;45933;51.336;12.612;2023-02-03T02:45:51;100253.81;;;4.78;73.31
60061;BME280;45933;51.336;12.612;2023-02-03T02:48:22;100248.66;;;4.79;73.32
60061;BME280;45933;51.336;12.612;2023-02-03T02:50:52;100239.25;;;4.81;73.38
60061;BME280;45933;51.336;12.612;2023-02-03T02:53:22;100244.53;;;4.86;73.57
60061;BME280;45933;51.336;12.612;2023-02-03T02:55:51;100248.00;;;4.88;74.04
60061;BME280;45933;51.336;12.612;2023-02-03T02:58:18;100241.22;;;4.94;73.32
60061;BME280;45933;51.336;12.612;2023-02-03T03:00:45;100242.91;;;4.91;74.18
60061;BME280;45933;51.336;12.612;2023-02-03T03:03:21;100238.75;;;5.01;74.44
60061;BME280;45933;51.336;12.612;2023-02-03T03:05:53;100228.59;;;5.08;74.22
60061;BME280;45933;51.336;12.612;2023-02-03T03:08:33;100225.16;;;5.11;74.16
60061;BME280;45933;51.336;12.612;2023-02-03T03:11:00;100227.91;;;5.17;73.58
60061;BME280;45933;51.336;12.612;2023-02-03T03:13:31;100227.06;;;5.19;74.31
60061;BME280;45933;51.336;12.612;2023-02-03T03:15:58;100208.97;;;5.18;74.41
60061;BME280;45933;51.336;12.612;2023-02-03T03:18:33;100200.44;;;5.23;74.61
60061;BME280;45933;51.336;12.612;2023-02-03T03:21:01;100222.75;;;5.18;75.44
60061;BME280;45933;51.336;12.612;2023-02-03T03:23:34;100209.25;;;5.35;74.62
60061;BME280;45933;51.336;12.612;2023-02-03T03:26:10;100210.19;;;5.38;74.37
60061;BME280;45933;51.336;12.612;2023-02-03T03:31:44;100223.25;;;5.47;74.68
60061;BME280;45933;51.336;12.612;2023-02-03T03:34:11;100208.75;;;5.56;74.13
60061;BME280;45933;51.336;12.612;2023-02-03T03:36:53;100198.47;;;5.60;74.64
60061;BME280;45933;51.336;12.612;2023-02-03T03:39:27;100194.09;;;5.55;75.18
60061;BME280;45933;51.336;12.612;2023-02-03T03:42:06;100191.66;;;5.65;74.98
60061;BME280;45933;51.336;12.612;2023-02-03T03:44:48;100187.53;;;5.75;74.57
60061;BME280;45933;51.336;12.612;2023-02-03T03:47:23;100172.94;;;5.82;74.12
60061;BME280;45933;51.336;12.612;2023-02-03T03:49:52;100167.56;;;5.69;75.71
60061;BME280;45933;51.336;12.612;2023-02-03T03:52:22;100159.16;;;5.83;74.73
60061;BME280;45933;51.336;12.612;2023-02-03T03:54:52;100149.66;;;5.82;75.55
60061;BME280;45933;51.336;12.612;2023-02-03T03:57:26;100148.13;;;5.91;75.13
60061;BME280;45933;51.336;12.612;2023-02-03T03:59:53;100131.91;;;6.03;74.21
60061;BME280;45933;51.336;12.612;2023-02-03T04:02:19;100117.22;;;6.02;74.87
60061;BME280;45933;51.336;12.612;2023-02-03T04:04:46;100110.41;;;6.09;74.57
60061;BME280;45933;51.336;12.612;2023-02-03T04:07:13;100139.81;;;6.17;73.99
60061;BME280;45933;51.336;12.612;2023-02-03T04:09:38;100145.06;;;6.21;74.11
60061;BME280;45933;51.336;12.612;2023-02-03T04:12:12;100146.91;;;6.28;73.71
60061;BME280;45933;51.336;12.612;2023-02-03T04:14:40;100152.88;;;6.26;74.21
60061;BME280;45933;51.336;12.612;2023-02-03T04:17:06;100149.56;;;6.35;74.05
60061;BME280;45933;51.336;12.612;2023-02-03T04:19:32;100155.66;;;6.40;73.43
60061;BME280;45933;51.336;12.612;2023-02-03T04:21:57;100159.19;;;6.45;73.22
60061;BME280;45933;51.336;12.612;2023-02-03T04:24:22;100179.91;;;6.48;73.54
60061;BME280;45933;51.336;12.612;2023-02-03T04:26:48;100176.53;;;6.52;73.33
60061;BME280;45933;51.336;12.612;2023-02-03T04:29:13;100160.13;;;6.53;73.64
60061;BME280;45933;51.336;12.612;2023-02-03T04:31:39;100155.00;;;6.58;73.82
60061;BME280;45933;51.336;12.612;2023-02-03T04:34:05;100157.63;;;6.59;73.87
60061;BME280;45933;51.336;12.612;2023-02-03T04:36:31;100154.19;;;6.62;73.66
60061;BME280;45933;51.336;12.612;2023-02-03T04:38:56;100154.28;;;6.69;73.68
60061;BME280;45933;51.336;12.612;2023-02-03T04:41:21;100147.34;;;6.68;73.78
60061;BME280;45933;51.336;12.612;2023-02-03T04:43:47;100130.09;;;6.69;73.94
60061;BME280;45933;51.336;12.612;2023-02-03T04:46:12;100156.03;;;6.72;74.07
60061;BME280;45933;51.336;12.612;2023-02-03T04:48:38;100149.19;;;6.77;73.95
60061;BME280;45933;51.336;12.612;2023-02-03T04:51:06;100140.56;;;6.79;73.79
60061;BME280;45933;51.336;12.612;2023-02-03T04:53:32;100137.09;;;6.76;74.57
60061;BME280;45933;51.336;12.612;2023-02-03T04:55:58;100133.69;;;6.81;73.73
60061;BME280;45933;51.336;12.612;2023-02-03T04:58:23;100117.28;;;6.82;73.65
60061;BME280;45933;51.336;12.612;2023-02-03T05:00:51;100112.16;;;6.87;73.85
60061;BME280;45933;51.336;12.612;2023-02-03T05:03:17;100105.25;;;6.86;73.77
60061;BME280;45933;51.336;12.612;2023-02-03T05:05:42;100103.56;;;6.93;73.44
60061;BME280;45933;51.336;12.612;2023-02-03T05:08:07;100093.22;;;6.93;73.77
60061;BME280;45933;51.336;12.612;2023-02-03T05:10:33;100088.03;;;6.96;73.75
60061;BME280;45933;51.336;12.612;2023-02-03T05:12:58;100078.56;;;6.98;73.41
60061;BME280;45933;51.336;12.612;2023-02-03T05:15:23;100070.84;;;7.05;73.30
60061;BME280;45933;51.336;12.612;2023-02-03T05:17:53;100050.97;;;7.04;73.90
60061;BME280;45933;51.336;12.612;2023-02-03T05:20:19;100047.53;;;7.04;73.79
60061;BME280;45933;51.336;12.612;2023-02-03T05:22:44;100067.41;;;7.06;73.77
60061;BME280;45933;51.336;12.612;2023-02-03T05:25:10;100071.78;;;7.14;73.55
60061;BME280;45933;51.336;12.612;2023-02-03T05:27:37;100065.75;;;7.15;74.00
60061;BME280;45933;51.336;12.612;2023-02-03T05:30:03;100058.78;;;7.07;74.58
60061;BME280;45933;51.336;12.612;2023-02-03T05:32:29;100060.47;;;7.04;74.47
60061;BME280;45933;51.336;12.612;2023-02-03T05:34:54;100076.97;;;7.17;73.60
60061;BME280;45933;51.336;12.612;2023-02-03T05:37:19;100065.78;;;7.19;73.76
60061;BME280;45933;51.336;12.612;2023-02-03T05:39:45;100071.78;;;7.15;74.12
60061;BME280;45933;51.336;12.612;2023-02-03T05:42:10;100077.03;;;7.20;73.80
60061;BME280;45933;51.336;12.612;2023-02-03T05:44:35;100070.97;;;7.21;73.77
60061;BME280;45933;51.336;12.612;2023-02-03T05:47:01;100073.59;;;7.25;73.62
60061;BME280;45933;51.336;12.612;2023-02-03T05:49:26;100064.94;;;7.22;73.78
60061;BME280;45933;51.336;12.612;2023-02-03T05:51:54;100065.00;;;7.29;73.32
60061;BME280;45933;51.336;12.612;2023-02-03T05:54:19;100053.78;;;7.30;73.15
60061;BME280;45933;51.336;12.612;2023-02-03T05:56:45;100058.09;;;7.31;73.14
60061;BME280;45933;51.336;12.612;2023-02-03T05:59:11;100044.28;;;7.37;73.25
60061;BME280;45933;51.336;12.612;2023-02-03T06:01:36;100029.59;;;7.34;73.39
60061;BME280;45933;51.336;12.612;2023-02-03T06:04:02;100036.56;;;7.40;73.01
60061;BME280;45933;51.336;12.612;2023-02-03T06:06:28;100031.41;;;7.46;72.58
60061;BME280;45933;51.336;12.612;2023-02-03T06:09:01;100043.53;;;7.49;72.49
60061;BME280;45933;51.336;12.612;2023-02-03T06:11:27;100037.47;;;7.50;72.18
60061;BME280;45933;51.336;12.612;2023-02-03T06:13:54;100022.69;;;7.37;72.95
60061;BME280;45933;51.336;12.612;2023-02-03T06:16:20;100020.09;;;7.37;73.32
60061;BME280;45933;51.336;12.612;2023-02-03T06:18:46;100021.88;;;7.48;72.39
60061;BME280;45933;51.336;12.612;2023-02-03T06:21:12;100011.53;;;7.45;72.75
60061;BME280;45933;51.336;12.612;2023-02-03T06:23:37;100013.28;;;7.51;72.47
60061;BME280;45933;51.336;12.612;2023-02-03T06:26:02;100008.97;;;7.54;71.97
60061;BME280;45933;51.336;12.612;2023-02-03T06:28:28;100009.81;;;7.50;72.22
60061;BME280;45933;51.336;12.612;2023-02-03T06:30:54;99999.47;;;7.55;72.00
60061;BME280;45933;51.336;12.612;2023-02-03T06:33:19;99988.22;;;7.57;71.96
60061;BME280;45933;51.336;12.612;2023-02-03T06:35:44;100000.31;;;7.52;72.00
60061;BME280;45933;51.336;12.612;2023-02-03T06:38:10;99986.47;;;7.53;71.74
60061;BME280;45933;51.336;12.612;2023-02-03T06:40:35;99984.75;;;7.51;72.09
60061;BME280;45933;51.336;12.612;2023-02-03T06:43:01;99991.66;;;7.53;71.57
60061;BME280;45933;51.336;12.612;2023-02-03T06:45:26;99983.94;;;7.61;71.50
60061;BME280;45933;51.336;12.612;2023-02-03T06:47:51;99971.81;;;7.63;71.52
60061;BME280;45933;51.336;12.612;2023-02-03T06:50:17;99977.91;;;7.65;70.90
60061;BME280;45933;51.336;12.612;2023-02-03T06:52:42;99960.59;;;7.61;70.98
60061;BME280;45933;51.336;12.612;2023-02-03T06:55:08;99969.22;;;7.60;71.19
60061;BME280;45933;51.336;12.612;2023-02-03T06:57:33;99975.28;;;7.60;71.04
60061;BME280;45933;51.336;12.612;2023-02-03T06:59:58;99978.78;;;7.66;71.10
60061;BME280;45933;51.336;12.612;2023-02-03T07:02:24;99959.75;;;7.65;70.56
60061;BME280;45933;51.336;12.612;2023-02-03T07:04:49;99968.41;;;7.70;70.68
60061;BME280;45933;51.336;12.612;2023-02-03T07:07:15;99968.41;;;7.70;70.26
60061;BME280;45933;51.336;12.612;2023-02-03T07:09:40;99970.19;;;7.80;69.97
60061;BME280;45933;51.336;12.612;2023-02-03T07:12:07;99959.75;;;7.73;70.05
60061;BME280;45933;51.336;12.612;2023-02-03T07:14:33;99946.84;;;7.80;69.75
60061;BME280;45933;51.336;12.612;2023-02-03T07:17:03;99945.09;;;7.76;69.87
60061;BME280;45933;51.336;12.612;2023-02-03T07:19:28;99937.31;;;7.89;69.20
60061;BME280;45933;51.336;12.612;2023-02-03T07:21:54;99946.84;;;7.90;69.22
60061;BME280;45933;51.336;12.612;2023-02-03T07:24:19;99938.19;;;7.89;69.52
60061;BME280;45933;51.336;12.612;2023-02-03T07:26:44;99949.47;;;7.94;69.39
60061;BME280;45933;51.336;12.612;2023-02-03T07:29:10;99955.50;;;7.90;69.16
60061;BME280;45933;51.336;12.612;2023-02-03T07:31:35;99946.84;;;7.94;68.99
60061;BME280;45933;51.336;12.612;2023-02-03T07:34:02;99947.72;;;7.93;68.68
60061;BME280;45933;51.336;12.612;2023-02-03T07:36:27;99936.47;;;7.94;69.13
60061;BME280;45933;51.336;12.612;2023-02-03T07:38:53;99942.56;;;8.02;68.38
60061;BME280;45933;51.336;12.612;2023-02-03T07:41:19;99936.50;;;8.00;68.57
60061;BME280;45933;51.336;12.612;2023-02-03T07:43:44;99935.66;;;8.03;68.43
60061;BME280;45933;51.336;12.612;2023-02-03T07:46:10;99960.72;;;8.04;68.46
60061;BME280;45933;51.336;12.612;2023-02-03T07:48:35;99944.28;;;8.05;68.40
60061;BME280;45933;51.336;12.612;2023-02-03T07:51:01;99941.72;;;8.08;68.28
60061;BME280;45933;51.336;12.612;2023-02-03T07:53:26;99937.38;;;8.05;68.15
60061;BME280;45933;51.336;12.612;2023-02-03T07:55:51;99932.16;;;8.01;68.26
60061;BME280;45933;51.336;12.612;2023-02-03T07:58:16;99921.81;;;8.08;68.24
60061;BME280;45933;51.336;12.612;2023-02-03T08:00:42;99929.59;;;8.04;67.71
60061;BME280;45933;51.336;12.612;2023-02-03T08:03:07;99919.19;;;8.11;67.72
60061;BME280;45933;51.336;12.612;2023-02-03T08:05:33;99928.75;;;8.14;67.88
60061;BME280;45933;51.336;12.612;2023-02-03T08:07:58;99907.97;;;8.17;68.00
60061;BME280;45933;51.336;12.612;2023-02-03T08:10:23;99909.72;;;8.23;67.85
60061;BME280;45933;51.336;12.612;2023-02-03T08:12:52;99895.88;;;8.18;68.11
60061;BME280;45933;51.336;12.612;2023-02-03T08:15:17;99905.38;;;8.20;68.14
60061;BME280;45933;51.336;12.612;2023-02-03T08:17:42;99901.06;;;8.18;67.72
60061;BME280;45933;51.336;12.612;2023-02-03T08:20:09;99882.00;;;8.11;68.23
60061;BME280;45933;51.336;12.612;2023-02-03T08:22:35;99896.72;;;8.17;67.44
60061;BME280;45933;51.336;12.612;2023-02-03T08:25:00;99883.72;;;8.15;67.54
60061;BME280;45933;51.336;12.612;2023-02-03T08:27:25;99888.94;;;8.21;67.08
60061;BME280;45933;51.336;12.612;2023-02-03T08:29:51;99875.06;;;8.16;67.32
60061;BME280;45933;51.336;12.612;2023-02-03T08:32:18;99889.81;;;8.23;67.17
60061;BME280;45933;51.336;12.612;2023-02-03T08:34:45;99877.69;;;8.21;66.98
60061;BME280;45933;51.336;12.612;2023-02-03T08:37:12;99882.03;;;8.23;67.01
60061;BME280;45933;51.336;12.612;2023-02-03T08:39:38;99859.50;;;8.27;66.67
60061;BME280;45933;51.336;12.612;2023-02-03T08:42:04;99864.72;;;8.28;66.45
60061;BME280;45933;51.336;12.612;2023-02-03T08:44:30;99849.13;;;8.30;66.36
60061;BME280;45933;51.336;12.612;2023-02-03T08:46:56;99847.41;;;8.33;66.32
60061;BME280;45933;51.336;12.612;2023-02-03T08:49:22;99819.69;;;8.35;66.48
60061;BME280;45933;51.336;12.612;2023-02-03T08:51:47;99818.84;;;8.24;66.44
60061;BME280;45933;51.336;12.612;2023-02-03T08:54:13;99822.28;;;8.34;66.33
60061;BME280;45933;51.336;12.612;2023-02-03T08:56:39;99824.03;;;8.33;65.79
60061;BME280;45933;51.336;12.612;2023-02-03T08:59:05;99816.25;;;8.38;66.03
60061;BME280;45933;51.336;12.612;2023-02-03T09:01:30;99817.97;;;8.34;65.76
60061;BME280;45933;51.336;12.612;2023-02-03T09:03:56;99811.94;;;8.38;66.15
60061;BME280;45933;51.336;12.612;2023-02-03T09:06:21;99821.44;;;8.44;65.41
60061;BME280;45933;51.336;12.612;2023-02-03T09:08:47;99798.06;;;8.46;65.54
60061;BME280;45933;51.336;12.612;2023-02-03T09:11:14;99815.38;;;8.48;65.69
60061;BME280;45933;51.336;12.612;2023-02-03T09:13:40;99819.72;;;8.40;65.54
60061;BME280;45933;51.336;12.612;2023-02-03T09:16:10;99806.72;;;8.49;65.17
60061;BME280;45933;51.336;12.612;2023-02-03T09:18:35;99791.13;;;8.57;65.38
60061;BME280;45933;51.336;12.612;2023-02-03T09:21:06;99793.72;;;8.51;65.54
60061;BME280;45933;51.336;12.612;2023-02-03T09:23:31;99787.66;;;8.50;65.31
60061;BME280;45933;51.336;12.612;2023-02-03T09:26:04;99796.31;;;8.54;65.32
60061;BME280;45933;51.336;12.612;2023-02-03T09:28:30;99791.09;;;8.54;65.42
60061;BME280;45933;51.336;12.612;2023-02-03T09:31:00;99796.31;;;8.52;65.34
60061;BME280;45933;51.336;12.612;2023-02-03T09:33:25;99779.84;;;8.58;65.40
60061;BME280;45933;51.336;12.612;2023-02-03T09:35:52;99784.19;;;8.57;65.59
60061;BME280;45933;51.336;12.612;2023-02-03T09:38:18;99773.78;;;8.57;65.36
60061;BME280;45933;51.336;12.612;2023-02-03T09:40:48;99763.41;;;8.60;65.21
60061;BME280;45933;51.336;12.612;2023-02-03T09:43:29;99775.53;;;8.57;65.21
60061;BME280;45933;51.336;12.612;2023-02-03T09:46:03;99765.97;;;8.63;65.18
60061;BME280;45933;51.336;12.612;2023-02-03T09:48:36;99763.38;;;8.68;65.41
60061;BME280;45933;51.336;12.612;2023-02-03T09:51:06;99767.69;;;8.64;65.21
60061;BME280;45933;51.336;12.612;2023-02-03T09:53:44;99765.13;;;8.66;65.18
60061;BME280;45933;51.336;12.612;2023-02-03T09:56:24;99750.38;;;8.68;65.43
60061;BME280;45933;51.336;12.612;2023-02-03T09:58:50;99743.44;;;8.69;65.35
60061;BME280;45933;51.336;12.612;2023-02-03T10:01:16;99749.50;;;8.72;64.99
60061;BME280;45933;51.336;12.612;2023-02-03T10:06:27;99744.28;;;8.75;64.96
60061;BME280;45933;51.336;12.612;2023-02-03T10:12:07;99727.81;;;8.78;65.09
60061;BME280;45933;51.336;12.612;2023-02-03T10:14:43;99726.09;;;8.81;65.03
60061;BME280;45933;51.336;12.612;2023-02-03T10:17:36;99730.41;;;8.82;64.89
60061;BME280;45933;51.336;12.612;2023-02-03T10:22:53;99713.06;;;8.80;65.08
60061;BME280;45933;51.336;12.612;2023-02-03T10:27:56;99680.13;;;8.85;64.73
60061;BME280;45933;51.336;12.612;2023-02-03T10:30:30;99689.66;;;8.89;65.00
60061;BME280;45933;51.336;12.612;2023-02-03T10:33:09;99702.69;;;8.86;65.23
60061;BME280;45933;51.336;12.612;2023-02-03T10:35:50;99715.63;;;8.92;64.84
60061;BME280;45933;51.336;12.612;2023-02-03T10:38:31;99724.28;;;8.97;64.92
60061;BME280;45933;51.336;12.612;2023-02-03T10:40:58;99711.31;;;8.89;64.87
60061;BME280;45933;51.336;12.612;2023-02-03T10:43:23;99713.06;;;8.86;65.23
60061;BME280;45933;51.336;12.612;2023-02-03T10:46:07;99704.44;;;8.78;65.86
60061;BME280;45933;51.336;12.612;2023-02-03T10:48:32;99699.19;;;8.87;65.48
60061;BME280;45933;51.336;12.612;2023-02-03T10:50:58;99718.28;;;8.83;65.51
60061;BME280;45933;51.336;12.612;2023-02-03T10:53:32;99706.94;;;8.95;65.17
60061;BME280;45933;51.336;12.612;2023-02-03T10:56:05;99709.53;;;8.96;65.48
60061;BME280;45933;51.336;12.612;2023-02-03T10:58:33;99726.06;;;8.87;65.62
60061;BME280;45933;51.336;12.612;2023-02-03T11:01:09;99726.03;;;8.92;65.74
60061;BME280;45933;51.336;12.612;2023-02-03T11:03:35;99730.34;;;8.95;65.98
60061;BME280;45933;51.336;12.612;2023-02-03T11:06:13;99735.56;;;8.92;66.42
60061;BME280;45933;51.336;12.612;2023-02-03T11:08:45;99723.44;;;8.89;67.06
60061;BME280;45933;51.336;12.612;2023-02-03T11:11:30;99727.75;;;8.95;67.41
60061;BME280;45933;51.336;12.612;2023-02-03T11:16:26;99718.28;;;8.81;68.26
60061;BME280;45933;51.336;12.612;2023-02-03T11:18:59;99716.53;;;8.80;68.30
60061;BME280;45933;51.336;12.612;2023-02-03T11:21:41;99704.41;;;8.79;68.55
60061;BME280;45933;51.336;12.612;2023-02-03T11:24:19;99708.78;;;8.77;68.96
60061;BME280;45933;51.336;12.612;2023-02-03T11:29:27;99697.53;;;8.72;69.51
60061;BME280;45933;51.336;12.612;2023-02-03T11:31:55;99709.69;;;8.67;69.83
60061;BME280;45933;51.336;12.612;2023-02-03T11:34:26;99706.19;;;8.68;70.43
60061;BME280;45933;51.336;12.612;2023-02-03T11:36:52;99700.13;;;8.68;70.48
60061;BME280;45933;51.336;12.612;2023-02-03T11:41:46;99693.22;;;8.67;70.77
60061;BME280;45933;51.336;12.612;2023-02-03T11:44:24;99695.84;;;8.65;71.44
60061;BME280;45933;51.336;12.612;2023-02-03T11:47:02;99677.63;;;8.63;71.52
60061;BME280;45933;51.336;12.612;2023-02-03T12:00:47;99650.81;;;8.58;73.24
60061;BME280;45933;51.336;12.612;2023-02-03T12:03:50;99634.34;;;8.58;73.13
60061;BME280;45933;51.336;12.612;2023-02-03T12:17:44;99618.69;;;8.76;72.02
60061;BME280;45933;51.336;12.612;2023-02-03T12:23:09;99627.31;;;8.83;71.44
60061;BME280;45933;51.336;12.612;2023-02-03T12:25:51;99636.81;;;8.88;71.45
60061;BME280;45933;51.336;12.612;2023-02-03T12:31:07;99648.03;;;8.90;70.61
60061;BME280;45933;51.336;12.612;2023-02-03T12:33:38;99659.31;;;8.93;70.79
60061;BME280;45933;51.336;12.612;2023-02-03T12:36:08;99641.09;;;8.97;70.30
60061;BME280;45933;51.336;12.612;2023-02-03T12:41:16;99635.88;;;9.02;70.38
60061;BME280;45933;51.336;12.612;2023-02-03T12:43:45;99652.28;;;9.05;69.97
60061;BME280;45933;51.336;12.612;2023-02-03T12:46:23;99655.75;;;9.09;70.06
60061;BME280;45933;51.336;12.612;2023-02-03T12:49:09;99661.81;;;9.08;69.71
60061;BME280;45933;51.336;12.612;2023-02-03T12:52:10;99655.81;;;8.98;69.34
60061;BME280;45933;51.336;12.612;2023-02-03T12:54:48;99691.31;;;9.01;69.65
60061;BME280;45933;51.336;12.612;2023-02-03T12:57:31;99678.34;;;8.98;69.11
60061;BME280;45933;51.336;12.612;2023-02-03T13:00:17;99707.00;;;8.87;67.91
60061;BME280;45933;51.336;12.612;2023-02-03T13:02:55;99687.09;;;8.83;67.96
60061;BME280;45933;51.336;12.612;2023-02-03T13:05:29;99686.28;;;8.72;66.97
60061;BME280;45933;51.336;12.612;2023-02-03T13:08:06;99705.25;;;8.84;67.02
60061;BME280;45933;51.336;12.612;2023-02-03T13:10:40;99694.94;;;8.72;66.15
60061;BME280;45933;51.336;12.612;2023-02-03T13:13:10;99727.81;;;8.75;66.72
60061;BME280;45933;51.336;12.612;2023-02-03T13:15:45;99729.56;;;8.77;66.67
60061;BME280;45933;51.336;12.612;2023-02-03T13:18:28;99726.09;;;8.77;66.20
60061;BME280;45933;51.336;12.612;2023-02-03T13:20:55;99727.81;;;8.78;66.52
60061;BME280;45933;51.336;12.612;2023-02-03T13:23:22;99729.56;;;8.76;65.62
60061;BME280;45933;51.336;12.612;2023-02-03T13:26:01;99719.19;;;8.76;64.39
60061;BME280;45933;51.336;12.612;2023-02-03T13:31:37;99718.31;;;8.77;62.38
60061;BME280;45933;51.336;12.612;2023-02-03T13:37:07;99733.03;;;8.76;61.96
60061;BME280;45933;51.336;12.612;2023-02-03T13:42:25;99762.53;;;8.60;60.62
60061;BME280;45933;51.336;12.612;2023-02-03T13:45:26;99739.13;;;8.68;61.35
60061;BME280;45933;51.336;12.612;2023-02-03T13:47:56;99754.69;;;8.72;60.97
60061;BME280;45933;51.336;12.612;2023-02-03T13:50:26;99749.50;;;8.69;60.55
60061;BME280;45933;51.336;12.612;2023-02-03T13:52:59;99750.41;;;8.62;59.67
60061;BME280;45933;51.336;12.612;2023-02-03T13:55:36;99761.66;;;8.66;60.24
60061;BME280;45933;51.336;12.612;2023-02-03T13:58:17;99768.56;;;8.73;60.49
60061;BME280;45933;51.336;12.612;2023-02-03T14:05:51;99753.00;;;8.60;60.01
60061;BME280;45933;51.336;12.612;2023-02-03T14:14:00;99759.09;;;8.59;60.76
60061;BME280;45933;51.336;12.612;2023-02-03T14:16:46;99757.31;;;8.63;61.29
60061;BME280;45933;51.336;12.612;2023-02-03T14:22:07;99749.50;;;8.64;61.44
60061;BME280;45933;51.336;12.612;2023-02-03T14:24:36;99759.94;;;8.60;60.47
60061;BME280;45933;51.336;12.612;2023-02-03T14:27:07;99765.13;;;8.57;59.50
60061;BME280;45933;51.336;12.612;2023-02-03T14:29:40;99746.09;;;8.55;58.45
60061;BME280;45933;51.336;12.612;2023-02-03T14:32:11;99753.03;;;8.48;58.62